createdAt,value
2022-09-12T00:04:28.327Z,15.56
2022-09-12T00:09:29.917Z,15.51
2022-09-12T00:14:34.997Z,15.49
2022-09-12T00:19:36.405Z,15.49
2022-09-12T00:24:37.844Z,15.52
2022-09-12T00:29:39.251Z,15.57
2022-09-12T00:34:40.712Z,15.41
2022-09-12T00:39:43.493Z,15.27
2022-09-12T00:44:50.141Z,15.18
2022-09-12T00:50:00.866Z,15.07
2022-09-12T00:55:05.226Z,15.16
2022-09-12T01:00:15.635Z,15.29
2022-09-12T01:05:17.531Z,15.33
2022-09-12T01:10:20.317Z,15.18
2022-09-12T01:15:22.664Z,15.13
2022-09-12T01:20:41.476Z,15.00
2022-09-12T01:26:01.805Z,15.03
2022-09-12T01:31:28.750Z,14.92
2022-09-12T01:37:08.287Z,14.96
2022-09-12T01:42:31.573Z,15.03
2022-09-12T01:47:54.533Z,15.01
2022-09-12T01:53:08.009Z,15.05
2022-09-12T01:58:14.492Z,15.03
2022-09-12T02:03:24.090Z,14.97
2022-09-12T02:08:31.358Z,15.02
2022-09-12T02:13:46.808Z,15.01
2022-09-12T02:18:55.317Z,14.80
2022-09-12T02:24:01.275Z,14.86
2022-09-12T02:29:04.419Z,14.86
2022-09-12T02:34:09.743Z,14.72
2022-09-12T02:39:11.163Z,14.74
2022-09-12T02:44:12.807Z,14.54
2022-09-12T02:49:16.546Z,14.64
2022-09-12T02:54:19.836Z,14.57
2022-09-12T02:59:24.251Z,14.54
2022-09-12T03:05:02.723Z,14.58
2022-09-12T03:10:32.686Z,14.81
2022-09-12T03:15:42.979Z,14.66
2022-09-12T03:21:09.780Z,14.68
2022-09-12T03:26:26.161Z,14.63
2022-09-12T03:31:27.657Z,14.68
2022-09-12T03:36:30.410Z,14.70
2022-09-12T03:41:31.829Z,14.63
2022-09-12T03:46:33.702Z,14.72
2022-09-12T03:51:35.140Z,14.67
2022-09-12T03:56:36.986Z,14.66
2022-09-12T04:01:38.397Z,14.61
2022-09-12T04:06:39.778Z,14.53
2022-09-12T04:11:41.380Z,14.60
2022-09-12T04:16:42.870Z,14.56
2022-09-12T04:21:44.378Z,14.53
2022-09-12T04:26:45.946Z,14.46
2022-09-12T04:31:48.310Z,14.61
2022-09-12T04:36:49.750Z,14.56
2022-09-12T04:41:51.838Z,14.49
2022-09-12T04:46:53.322Z,14.71
2022-09-12T04:51:57.587Z,14.62
2022-09-12T04:56:59.834Z,14.56
2022-09-12T05:02:02.183Z,14.90
2022-09-12T05:07:05.247Z,14.68
2022-09-12T05:12:07.551Z,14.90
2022-09-12T05:17:09.114Z,14.91
2022-09-12T05:22:10.575Z,15.01
2022-09-12T05:27:11.962Z,14.98
2022-09-12T05:32:13.605Z,15.16
2022-09-12T05:37:15.105Z,15.04
2022-09-12T05:42:16.507Z,15.18
2022-09-12T05:47:18.811Z,15.19
2022-09-12T05:52:20.313Z,15.25
2022-09-12T05:57:21.842Z,15.29
2022-09-12T06:02:23.281Z,15.37
2022-09-12T06:07:24.758Z,15.57
2022-09-12T06:12:29.875Z,15.51
2022-09-12T06:17:31.372Z,15.62
2022-09-12T06:22:32.880Z,15.74
2022-09-12T06:27:34.273Z,15.80
2022-09-12T06:32:35.930Z,16.13
2022-09-12T06:37:37.351Z,16.20
2022-09-12T06:42:38.868Z,16.41
2022-09-12T06:47:40.437Z,16.60
2022-09-12T06:52:41.875Z,16.40
2022-09-12T06:57:43.992Z,16.59
2022-09-12T07:02:45.675Z,16.63
2022-09-12T07:07:47.185Z,16.70
2022-09-12T07:12:48.726Z,16.70
2022-09-12T07:17:50.124Z,17.01
2022-09-12T07:22:51.811Z,17.11
2022-09-12T07:27:53.597Z,17.48
2022-09-12T07:32:55.082Z,17.57
2022-09-12T07:37:56.485Z,17.58
2022-09-12T07:42:58.819Z,17.62
2022-09-12T07:48:00.862Z,17.60
2022-09-12T07:53:03.720Z,17.95
2022-09-12T07:58:05.177Z,17.73
2022-09-12T08:03:07.181Z,17.73
2022-09-12T08:08:08.728Z,17.94
2022-09-12T08:13:10.874Z,17.90
2022-09-12T08:18:12.571Z,18.05
2022-09-12T08:23:14.300Z,18.06
2022-09-12T08:28:17.239Z,18.20
2022-09-12T08:33:18.768Z,18.40
2022-09-12T08:38:20.486Z,18.66
2022-09-12T08:44:13.512Z,18.93
2022-09-12T08:49:37.001Z,19.21
2022-09-12T08:54:39.479Z,19.34
2022-09-12T08:59:45.943Z,19.26
2022-09-12T09:04:52.770Z,19.33
2022-09-12T09:10:00.324Z,19.54
2022-09-12T09:15:21.986Z,19.53
2022-09-12T09:20:33.303Z,19.62
2022-09-12T09:25:56.837Z,19.67
2022-09-12T09:30:58.613Z,19.97
2022-09-12T09:36:16.862Z,19.97
2022-09-12T09:41:41.335Z,20.35
2022-09-12T09:46:42.995Z,20.31
2022-09-12T09:51:45.246Z,20.53
2022-09-12T09:56:47.454Z,20.84
2022-09-12T10:01:57.531Z,21.08
2022-09-12T10:07:01.242Z,21.04
2022-09-12T10:12:24.985Z,21.18
2022-09-12T10:17:44.113Z,21.23
2022-09-12T10:22:47.593Z,21.43
2022-09-12T10:27:58.462Z,21.38
2022-09-12T10:33:08.767Z,21.68
2022-09-12T10:38:21.310Z,21.63
2022-09-12T10:43:38.936Z,21.79
2022-09-12T10:48:40.556Z,21.93
2022-09-12T10:53:46.249Z,21.93
2022-09-12T10:59:08.591Z,22.13
2022-09-12T11:04:22.042Z,22.46
2022-09-12T11:09:23.878Z,22.50
2022-09-12T11:14:36.613Z,22.34
2022-09-12T11:19:54.456Z,22.40
2022-09-12T11:25:12.127Z,22.39
2022-09-12T11:30:17.359Z,22.57
2022-09-12T11:35:24.677Z,22.74
2022-09-12T11:40:38.231Z,22.70
2022-09-12T11:45:45.835Z,22.92
2022-09-12T11:50:47.410Z,22.98
2022-09-12T11:55:56.579Z,23.08
2022-09-12T12:01:03.132Z,23.16
2022-09-12T12:06:12.435Z,23.44
2022-09-12T12:11:25.575Z,23.57
2022-09-12T12:16:30.667Z,23.37
2022-09-12T12:21:47.942Z,23.49
2022-09-12T12:26:58.611Z,23.45
2022-09-12T12:32:00.553Z,23.84
2022-09-12T12:37:20.800Z,23.86
2022-09-12T12:42:34.363Z,23.91
2022-09-12T12:47:35.707Z,23.92
2022-09-12T12:53:00.940Z,24.09
2022-09-12T12:58:03.933Z,23.90
2022-09-12T13:03:08.303Z,24.07
2022-09-12T13:08:27.426Z,24.02
2022-09-12T13:13:40.049Z,24.07
2022-09-12T13:18:49.893Z,24.26
2022-09-12T13:24:12.749Z,24.32
2022-09-12T13:29:19.737Z,24.42
2022-09-12T13:34:24.905Z,24.51
2022-09-12T13:39:54.177Z,24.77
2022-09-12T13:45:04.764Z,24.70
2022-09-12T13:50:12.624Z,24.67
2022-09-12T13:55:32.776Z,24.89
2022-09-12T14:00:34.970Z,24.78
2022-09-12T14:05:39.685Z,24.83
2022-09-12T14:10:44.423Z,24.78
2022-09-12T14:15:49.063Z,24.74
2022-09-12T14:20:54.917Z,24.80
2022-09-12T14:25:59.948Z,24.79
2022-09-12T14:31:04.770Z,24.87
2022-09-12T14:36:24.562Z,24.72
2022-09-12T14:41:36.094Z,24.84
2022-09-12T14:46:39.454Z,24.89
2022-09-12T14:51:51.692Z,25.12
2022-09-12T14:56:56.731Z,25.20
2022-09-12T15:02:16.886Z,25.08
2022-09-12T15:07:32.430Z,24.96
2022-09-12T15:12:34.883Z,24.81
2022-09-12T15:17:36.281Z,24.79
2022-09-12T15:22:38.726Z,24.86
2022-09-12T15:27:42.783Z,24.88
2022-09-12T15:32:44.582Z,24.91
2022-09-12T15:37:47.133Z,24.76
2022-09-12T15:42:48.636Z,24.72
2022-09-12T15:47:50.156Z,24.69
2022-09-12T15:52:51.732Z,24.64
2022-09-12T15:57:53.521Z,24.65
2022-09-12T16:02:55.244Z,24.72
2022-09-12T16:07:56.733Z,24.67
2022-09-12T16:12:59.610Z,24.64
2022-09-12T16:18:01.013Z,24.79
2022-09-12T16:23:03.044Z,24.56
2022-09-12T16:28:05.755Z,24.54
2022-09-12T16:33:07.154Z,24.53
2022-09-12T16:38:08.530Z,24.46
2022-09-12T16:43:09.927Z,24.41
2022-09-12T16:48:11.391Z,24.33
2022-09-12T16:53:13.104Z,24.17
2022-09-12T16:58:14.516Z,24.09
2022-09-12T17:03:18.848Z,23.97
2022-09-12T17:08:22.772Z,23.84
2022-09-12T17:13:27.439Z,23.87
2022-09-12T17:18:38.946Z,23.74
2022-09-12T17:23:41.083Z,23.64
2022-09-12T17:28:42.604Z,23.47
2022-09-12T17:33:44.171Z,23.32
2022-09-12T17:38:46.022Z,22.94
2022-09-12T17:43:50.765Z,22.77
2022-09-12T17:48:53.935Z,22.75
2022-09-12T17:54:08.210Z,22.69
2022-09-12T17:59:14.582Z,22.51
2022-09-12T18:04:16.885Z,22.22
2022-09-12T18:09:21.910Z,22.00
2022-09-12T18:14:23.490Z,21.91
2022-09-12T18:19:24.977Z,21.71
2022-09-12T18:24:26.614Z,21.66
2022-09-12T18:29:28.258Z,21.57
2022-09-12T18:34:29.717Z,21.47
2022-09-12T18:39:31.280Z,21.34
2022-09-12T18:44:32.957Z,21.18
2022-09-12T18:49:34.423Z,21.26
2022-09-12T18:54:36.451Z,21.04
2022-09-12T18:59:37.989Z,21.10
2022-09-12T19:04:39.451Z,20.81
2022-09-12T19:09:40.957Z,20.75
2022-09-12T19:14:42.396Z,20.85
2022-09-12T19:19:44.063Z,20.73
2022-09-12T19:24:45.511Z,20.89
2022-09-12T19:29:47.030Z,20.71
2022-09-12T19:34:48.951Z,20.56
2022-09-12T19:39:50.398Z,20.45
2022-09-12T19:44:55.898Z,20.30
2022-09-12T19:49:57.419Z,20.42
2022-09-12T19:54:58.818Z,20.36
2022-09-12T20:00:00.355Z,20.17
2022-09-12T20:05:01.981Z,20.31
2022-09-12T20:10:03.566Z,20.21
2022-09-12T20:15:05.870Z,20.19
2022-09-12T20:20:11.338Z,20.11
2022-09-12T20:25:12.807Z,20.06
2022-09-12T20:30:15.350Z,20.13
2022-09-12T20:35:17.244Z,20.16
2022-09-12T20:40:18.668Z,19.86
2022-09-12T20:45:20.119Z,19.62
2022-09-12T20:50:21.645Z,19.66
2022-09-12T20:55:23.139Z,19.69
2022-09-12T21:00:24.776Z,19.72
2022-09-12T21:05:26.257Z,19.63
2022-09-12T21:10:27.714Z,19.61
2022-09-12T21:15:29.110Z,19.56
2022-09-12T21:20:31.221Z,19.59
2022-09-12T21:25:32.621Z,19.64
2022-09-12T21:30:34.008Z,19.55
2022-09-12T21:35:35.995Z,19.51
2022-09-12T21:40:37.422Z,19.52
2022-09-12T21:45:38.805Z,19.54
2022-09-12T21:50:40.278Z,19.52
2022-09-12T21:55:41.734Z,19.62
2022-09-12T22:00:43.921Z,19.62
2022-09-12T22:05:45.732Z,19.65
2022-09-12T22:10:47.504Z,19.77
2022-09-12T22:15:52.880Z,19.68
2022-09-12T22:21:22.040Z,19.62
2022-09-12T22:26:23.950Z,19.69
2022-09-12T22:31:26.978Z,19.73
2022-09-12T22:36:31.315Z,19.68
2022-09-12T22:41:33.372Z,19.64
2022-09-12T22:46:34.830Z,19.61
2022-09-12T22:51:36.589Z,19.62
2022-09-12T22:56:38.206Z,19.66
2022-09-12T23:01:39.652Z,19.73
2022-09-12T23:06:41.075Z,19.70
2022-09-12T23:11:42.459Z,19.77
2022-09-12T23:16:43.909Z,19.65
2022-09-12T23:21:45.305Z,19.61
2022-09-12T23:26:46.751Z,19.45
2022-09-12T23:31:48.553Z,19.45
2022-09-12T23:36:49.995Z,19.41
2022-09-12T23:41:52.776Z,19.39
2022-09-12T23:46:54.231Z,19.34
2022-09-12T23:51:55.636Z,19.31
2022-09-12T23:56:57.201Z,19.40
